createdAt,value
2017-04-02T00:00:38.966Z,0
2017-04-02T00:01:19.447Z,0
2017-04-02T00:01:59.919Z,0
2017-04-02T00:02:40.420Z,0
2017-04-02T00:03:20.909Z,0
2017-04-02T00:04:01.362Z,0
2017-04-02T00:04:41.835Z,0
2017-04-02T00:06:59.630Z,0
2017-04-02T00:07:40.091Z,0
2017-04-02T00:10:13.084Z,0
2017-04-02T00:10:53.561Z,0
2017-04-02T00:11:33.976Z,0
2017-04-02T00:13:31.623Z,0
2017-04-02T00:14:12.130Z,0
2017-04-02T00:14:52.588Z,0
2017-04-02T00:15:33.053Z,0
2017-04-02T00:16:13.519Z,0
2017-04-02T00:16:53.988Z,0
2017-04-02T00:17:34.448Z,0
2017-04-02T00:18:14.927Z,0
2017-04-02T00:20:47.911Z,0
2017-04-02T00:21:28.458Z,0
2017-04-02T00:22:08.921Z,0
2017-04-02T00:22:49.409Z,0
2017-04-02T00:23:29.909Z,0
2017-04-02T00:25:57.817Z,0
2017-04-02T00:26:38.324Z,0
2017-04-02T00:27:18.809Z,0
2017-04-02T00:27:59.239Z,0
2017-04-02T00:28:39.725Z,0
2017-04-02T00:29:20.235Z,0
2017-04-02T00:30:00.705Z,0
2017-04-02T00:30:41.180Z,0
2017-04-02T00:31:21.654Z,0
2017-04-02T00:32:02.118Z,0
2017-04-02T00:32:42.571Z,0
2017-04-02T00:33:23.023Z,0
2017-04-02T00:35:35.739Z,0
2017-04-02T00:36:16.190Z,0
2017-04-02T00:36:56.672Z,0
2017-04-02T00:37:37.145Z,0
2017-04-02T00:38:17.585Z,0
2017-04-02T00:40:45.585Z,0
2017-04-02T00:41:26.078Z,0
2017-04-02T00:42:06.556Z,0
2017-04-02T00:42:47.040Z,0
2017-04-02T00:43:27.531Z,0
2017-04-02T00:44:07.976Z,0
2017-04-02T00:46:35.962Z,0
2017-04-02T00:47:16.451Z,0
2017-04-02T00:47:56.906Z,0
2017-04-02T00:48:37.367Z,0
2017-04-02T00:49:17.845Z,0
2017-04-02T00:51:30.563Z,0
2017-04-02T00:52:11.045Z,0
2017-04-02T00:52:51.507Z,0
2017-04-02T00:53:32.003Z,0
2017-04-02T00:54:12.509Z,0
2017-04-02T00:54:52.975Z,0
2017-04-02T00:55:33.471Z,0
2017-04-02T00:56:13.926Z,0
2017-04-02T00:56:54.424Z,0
2017-04-02T00:57:34.902Z,0
2017-04-02T00:58:15.361Z,0
2017-04-02T00:58:55.828Z,0
2017-04-02T00:59:36.356Z,0
2017-04-02T01:00:16.814Z,0
2017-04-02T01:00:57.293Z,0
2017-04-02T01:01:37.741Z,0
2017-04-02T01:02:18.203Z,0
2017-04-02T01:02:58.671Z,0
2017-04-02T01:03:39.136Z,0
2017-04-02T01:04:19.580Z,0
2017-04-02T01:05:00.023Z,0
2017-04-02T01:05:40.465Z,0
2017-04-02T01:07:58.297Z,0
2017-04-02T01:08:38.794Z,0
2017-04-02T01:09:19.329Z,0
2017-04-02T01:09:59.760Z,0
2017-04-02T01:10:40.258Z,0
2017-04-02T01:11:20.817Z,0
2017-04-02T01:12:01.315Z,0
2017-04-02T01:12:41.675Z,0
2017-04-02T01:13:22.130Z,0
2017-04-02T01:14:02.656Z,0
2017-04-02T01:14:43.108Z,0
2017-04-02T01:15:23.569Z,0
2017-04-02T01:16:03.994Z,0
2017-04-02T01:18:37.024Z,0
2017-04-02T01:19:17.521Z,0
2017-04-02T01:19:58.000Z,0
2017-04-02T01:20:38.505Z,0
2017-04-02T01:21:18.985Z,0
2017-04-02T01:21:59.450Z,0
2017-04-02T01:22:39.925Z,0
2017-04-02T01:23:20.417Z,0
2017-04-02T01:24:00.890Z,0
2017-04-02T01:24:41.391Z,0
2017-04-02T01:25:21.834Z,0
2017-04-02T01:26:02.334Z,0
2017-04-02T01:26:42.816Z,0
2017-04-02T01:27:23.281Z,0
2017-04-02T01:29:36.004Z,0
2017-04-02T01:30:16.450Z,0
2017-04-02T01:30:56.940Z,0
2017-04-02T01:31:37.412Z,0
2017-04-02T01:32:17.830Z,0
2017-04-02T01:34:50.894Z,0
2017-04-02T01:35:31.477Z,0
2017-04-02T01:36:11.947Z,0
2017-04-02T01:36:52.433Z,0
2017-04-02T01:37:32.915Z,0
2017-04-02T01:38:13.440Z,0
2017-04-02T01:38:53.913Z,0
2017-04-02T01:39:34.346Z,0
2017-04-02T01:40:14.806Z,0
2017-04-02T01:42:12.424Z,0
2017-04-02T01:42:52.921Z,0
2017-04-02T01:43:33.391Z,0
2017-04-02T01:44:13.861Z,0
2017-04-02T01:44:54.306Z,0
2017-04-02T01:45:34.735Z,0
2017-04-02T01:46:15.208Z,0
2017-04-02T01:46:55.641Z,0
2017-04-02T01:47:36.119Z,0
2017-04-02T01:48:16.537Z,0
2017-04-02T01:48:56.996Z,0
2017-04-02T01:49:37.447Z,0
2017-04-02T01:50:17.934Z,0
2017-04-02T01:50:58.383Z,0
2017-04-02T01:51:38.887Z,0
2017-04-02T01:52:19.361Z,0
2017-04-02T01:52:59.843Z,0
2017-04-02T01:53:40.354Z,0
2017-04-02T01:54:20.795Z,0
2017-04-02T01:55:01.297Z,0
2017-04-02T01:57:29.171Z,0
2017-04-02T01:58:09.634Z,0
2017-04-02T01:58:50.137Z,0
2017-04-02T01:59:30.608Z,0
2017-04-02T02:00:11.112Z,0
2017-04-02T02:00:51.564Z,0
2017-04-02T02:01:32.024Z,0
2017-04-02T02:02:12.479Z,0
2017-04-02T02:02:52.907Z,0
2017-04-02T02:03:33.390Z,0
2017-04-02T02:04:13.871Z,0
2017-04-02T02:04:54.326Z,0
2017-04-02T02:05:34.764Z,0
2017-04-02T02:06:15.183Z,0
2017-04-02T02:06:55.617Z,0
2017-04-02T02:07:36.151Z,0
2017-04-02T02:09:53.925Z,0
2017-04-02T02:10:34.381Z,0
2017-04-02T02:11:14.918Z,0
2017-04-02T02:11:55.339Z,0
2017-04-02T02:12:35.836Z,0
2017-04-02T02:13:16.311Z,0
2017-04-02T02:13:56.783Z,0
2017-04-02T02:14:37.259Z,0
2017-04-02T02:15:17.728Z,0
2017-04-02T02:15:58.194Z,0
2017-04-02T02:16:38.620Z,0
2017-04-02T02:17:19.063Z,0
2017-04-02T02:19:31.762Z,0
2017-04-02T02:20:12.197Z,0
2017-04-02T02:20:52.652Z,0
2017-04-02T02:21:33.089Z,0
2017-04-02T02:22:13.536Z,0
2017-04-02T02:22:54.034Z,0
2017-04-02T02:23:34.461Z,0
2017-04-02T02:24:14.903Z,0
2017-04-02T02:24:55.365Z,0
2017-04-02T02:25:35.807Z,0
2017-04-02T02:26:16.280Z,0
2017-04-02T02:26:56.747Z,0
2017-04-02T02:27:37.188Z,0
2017-04-02T02:28:17.652Z,0
2017-04-02T02:30:50.632Z,0
2017-04-02T02:31:31.103Z,0
2017-04-02T02:32:11.582Z,0
2017-04-02T02:32:52.074Z,0
2017-04-02T02:33:32.543Z,0
2017-04-02T02:34:13.003Z,0
2017-04-02T02:34:53.482Z,0
2017-04-02T02:35:33.980Z,0
2017-04-02T02:36:14.457Z,0
2017-04-02T02:36:54.940Z,0
2017-04-02T02:37:35.384Z,0
2017-04-02T02:39:33.003Z,0
2017-04-02T02:40:13.486Z,0
2017-04-02T02:40:53.964Z,0
2017-04-02T02:41:34.524Z,0
2017-04-02T02:42:15.023Z,0
2017-04-02T02:42:55.543Z,0
2017-04-02T02:43:36.051Z,0
2017-04-02T02:44:16.538Z,0
2017-04-02T02:44:57.014Z,0
2017-04-02T02:45:37.483Z,0
2017-04-02T02:46:17.977Z,0
2017-04-02T02:46:58.434Z,0
2017-04-02T02:47:38.855Z,0
2017-04-02T02:48:19.339Z,0
2017-04-02T02:50:47.239Z,0
2017-04-02T02:51:27.710Z,0
2017-04-02T02:52:08.202Z,0
2017-04-02T02:52:48.654Z,0
2017-04-02T02:53:29.135Z,0
2017-04-02T02:54:09.597Z,0
2017-04-02T02:54:50.021Z,0
2017-04-02T02:55:30.470Z,0
2017-04-02T02:56:10.946Z,0
2017-04-02T02:58:38.905Z,0
2017-04-02T02:59:19.368Z,0
2017-04-02T02:59:59.888Z,0
2017-04-02T03:00:40.366Z,0
2017-04-02T03:01:20.857Z,0
2017-04-02T03:02:01.328Z,0
2017-04-02T03:02:41.768Z,0
2017-04-02T03:03:22.249Z,0
2017-04-02T03:04:02.702Z,0
2017-04-02T03:06:20.523Z,0
2017-04-02T03:07:01.015Z,0
2017-04-02T03:07:41.439Z,0
2017-04-02T03:08:21.909Z,0
2017-04-02T03:09:02.367Z,0
2017-04-02T03:09:42.836Z,0
2017-04-02T03:12:15.832Z,0
2017-04-02T03:12:56.321Z,0
2017-04-02T03:13:36.787Z,0
2017-04-02T03:14:17.268Z,0
2017-04-02T03:14:57.710Z,0
2017-04-02T03:15:38.162Z,0
2017-04-02T03:17:35.806Z,0
2017-04-02T03:18:16.304Z,0
2017-04-02T03:18:56.805Z,0
2017-04-02T03:19:37.252Z,0
2017-04-02T03:20:17.737Z,0
2017-04-02T03:20:58.221Z,0
2017-04-02T03:21:38.658Z,0
2017-04-02T03:22:19.122Z,0
2017-04-02T03:24:52.123Z,0
2017-04-02T03:25:32.590Z,0
2017-04-02T03:26:13.105Z,0
2017-04-02T03:28:46.245Z,0
2017-04-02T03:29:26.753Z,0
2017-04-02T03:30:07.235Z,0
2017-04-02T03:30:47.701Z,0
2017-04-02T03:31:28.186Z,0
2017-04-02T03:32:08.674Z,0
2017-04-02T03:32:49.126Z,0
2017-04-02T03:33:29.581Z,0
2017-04-02T03:34:10.038Z,0
2017-04-02T03:34:50.447Z,0
2017-04-02T03:35:30.885Z,0
2017-04-02T03:37:28.535Z,0
2017-04-02T03:38:09.049Z,0
2017-04-02T03:38:49.527Z,0
2017-04-02T03:39:30.034Z,0
2017-04-02T03:40:10.489Z,0
2017-04-02T03:40:50.985Z,0
2017-04-02T03:41:31.460Z,0
2017-04-02T03:42:11.905Z,0
2017-04-02T03:42:52.370Z,0
2017-04-02T03:45:10.188Z,0
2017-04-02T03:45:50.663Z,0
2017-04-02T03:46:31.131Z,0
2017-04-02T03:48:43.809Z,0
2017-04-02T03:49:24.256Z,0
2017-04-02T03:50:04.727Z,0
2017-04-02T03:50:45.214Z,0
2017-04-02T03:51:25.685Z,0
2017-04-02T03:52:06.139Z,0
2017-04-02T03:52:46.555Z,0
2017-04-02T03:53:26.996Z,0
2017-04-02T03:54:07.438Z,0
2017-04-02T03:54:47.918Z,0
2017-04-02T03:55:28.350Z,0
2017-04-02T03:56:08.808Z,0
2017-04-02T03:56:49.251Z,0
2017-04-02T03:57:29.718Z,0
2017-04-02T03:58:10.155Z,0
2017-04-02T03:58:50.606Z,0
2017-04-02T03:59:31.015Z,0
2017-04-02T04:00:11.527Z,0
2017-04-02T04:00:51.975Z,0
2017-04-02T04:01:32.401Z,0
2017-04-02T04:02:12.817Z,0
2017-04-02T04:02:53.264Z,0
2017-04-02T04:05:05.926Z,0
2017-04-02T04:05:46.471Z,0
2017-04-02T04:06:26.920Z,0
2017-04-02T04:07:07.398Z,0
2017-04-02T04:07:47.906Z,0
2017-04-02T04:08:28.401Z,0
2017-04-02T04:09:09.518Z,0
2017-04-02T04:09:49.975Z,0
2017-04-02T04:11:47.622Z,0
2017-04-02T04:12:28.104Z,0
2017-04-02T04:13:08.566Z,0
2017-04-02T04:13:49.077Z,0
2017-04-02T04:14:29.578Z,0
2017-04-02T04:15:10.072Z,0
2017-04-02T04:15:50.564Z,0
2017-04-02T04:16:31.029Z,0
2017-04-02T04:17:11.516Z,0
2017-04-02T04:17:51.986Z,0
2017-04-02T04:18:32.456Z,0
2017-04-02T04:20:45.349Z,0
2017-04-02T04:21:25.803Z,0
2017-04-02T04:22:06.281Z,0
2017-04-02T04:22:46.719Z,0
2017-04-02T04:23:27.185Z,0
2017-04-02T04:24:07.593Z,0
2017-04-02T04:26:05.241Z,0
2017-04-02T04:26:45.705Z,0
2017-04-02T04:27:26.167Z,0
2017-04-02T04:28:06.619Z,0
2017-04-02T04:28:47.054Z,0
2017-04-02T04:29:27.513Z,0
2017-04-02T04:30:07.980Z,0
2017-04-02T04:30:48.400Z,0
2017-04-02T04:33:16.355Z,0
2017-04-02T04:33:56.896Z,0
2017-04-02T04:34:37.365Z,0
2017-04-02T04:35:17.832Z,0
2017-04-02T04:35:58.281Z,0
2017-04-02T04:36:38.723Z,0
2017-04-02T04:37:19.151Z,0
2017-04-02T04:37:59.566Z,0
2017-04-02T04:38:40.015Z,0
2017-04-02T04:39:20.450Z,0
2017-04-02T04:40:00.960Z,0
2017-04-02T04:40:41.416Z,0
2017-04-02T04:41:21.856Z,0
2017-04-02T04:43:19.502Z,0
2017-04-02T04:43:59.975Z,0
2017-04-02T04:44:40.412Z,4
2017-04-02T04:45:20.888Z,4
2017-04-02T04:46:01.334Z,4
2017-04-02T04:46:41.836Z,4
2017-04-02T04:47:22.251Z,4
2017-04-02T04:48:02.716Z,0
2017-04-02T04:48:43.189Z,4
2017-04-02T04:51:11.083Z,8
2017-04-02T04:51:51.582Z,4
2017-04-02T04:52:32.047Z,8
2017-04-02T04:53:12.519Z,8
2017-04-02T04:53:53.032Z,8
2017-04-02T04:54:33.500Z,8
2017-04-02T04:55:13.954Z,12
2017-04-02T04:55:54.463Z,12
2017-04-02T04:56:34.906Z,12
2017-04-02T04:57:15.350Z,12
2017-04-02T04:57:55.810Z,16
2017-04-02T05:00:28.840Z,20
2017-04-02T05:01:09.847Z,20
2017-04-02T05:01:50.332Z,24
2017-04-02T05:02:30.791Z,24
2017-04-02T05:03:11.254Z,24
2017-04-02T05:03:51.787Z,28
2017-04-02T05:04:32.297Z,32
2017-04-02T05:05:12.791Z,36
2017-04-02T05:05:53.274Z,36
2017-04-02T05:06:33.762Z,40
2017-04-02T05:07:14.256Z,44
2017-04-02T05:07:54.691Z,44
2017-04-02T05:10:12.510Z,60
2017-04-02T05:10:52.972Z,64
2017-04-02T05:11:33.388Z,68
2017-04-02T05:12:13.838Z,76
2017-04-02T05:12:54.289Z,80
2017-04-02T05:13:34.758Z,84
2017-04-02T05:15:52.567Z,92
2017-04-02T05:16:33.039Z,92
2017-04-02T05:18:50.887Z,104
2017-04-02T05:19:31.355Z,116
2017-04-02T05:20:11.849Z,124
2017-04-02T05:20:52.322Z,132
2017-04-02T05:21:32.812Z,136
2017-04-02T05:22:13.287Z,140
2017-04-02T05:22:53.758Z,144
2017-04-02T05:23:34.210Z,148
2017-04-02T05:24:14.625Z,148
2017-04-02T05:24:55.106Z,148
2017-04-02T05:25:35.534Z,144
2017-04-02T05:26:15.988Z,140
2017-04-02T05:26:56.421Z,136
2017-04-02T05:27:36.841Z,132
2017-04-02T05:28:17.329Z,128
2017-04-02T05:28:57.757Z,132
2017-04-02T05:29:38.189Z,132
2017-04-02T05:30:18.636Z,140
2017-04-02T05:30:59.084Z,144
2017-04-02T05:31:39.528Z,148
2017-04-02T05:32:19.955Z,148
2017-04-02T05:33:00.393Z,156
2017-04-02T05:33:40.829Z,160
2017-04-02T05:34:21.336Z,168
2017-04-02T05:35:01.782Z,168
2017-04-02T05:35:42.257Z,176
2017-04-02T05:36:22.711Z,184
2017-04-02T05:37:03.145Z,188
2017-04-02T05:37:43.615Z,192
2017-04-02T05:38:24.021Z,196
2017-04-02T05:39:04.495Z,200
2017-04-02T05:39:44.976Z,208
2017-04-02T05:40:25.441Z,208
2017-04-02T05:41:06.460Z,212
2017-04-02T05:41:46.913Z,216
2017-04-02T05:42:27.384Z,224
2017-04-02T05:43:07.832Z,224
2017-04-02T05:43:48.303Z,232
2017-04-02T05:44:28.755Z,236
2017-04-02T05:45:09.174Z,240
2017-04-02T05:45:49.624Z,252
2017-04-02T05:46:30.045Z,260
2017-04-02T05:47:10.476Z,264
2017-04-02T05:47:50.935Z,276
2017-04-02T05:50:03.692Z,288
2017-04-02T05:50:44.156Z,292
2017-04-02T05:51:24.621Z,292
2017-04-02T05:52:05.066Z,296
2017-04-02T05:52:45.510Z,300
2017-04-02T05:53:25.944Z,304
2017-04-02T05:54:06.421Z,308
2017-04-02T05:54:46.893Z,308
2017-04-02T05:55:27.315Z,308
2017-04-02T05:56:07.769Z,308
2017-04-02T05:56:48.217Z,312
2017-04-02T05:57:28.675Z,312
2017-04-02T05:58:09.125Z,312
2017-04-02T05:58:49.559Z,308
2017-04-02T05:59:30.028Z,308
2017-04-02T06:00:10.468Z,308
2017-04-02T06:00:50.940Z,312
2017-04-02T06:01:31.438Z,316
2017-04-02T06:03:44.122Z,344
2017-04-02T06:04:24.636Z,356
2017-04-02T06:05:05.151Z,372
2017-04-02T06:05:45.657Z,384
2017-04-02T06:06:26.127Z,404
2017-04-02T06:07:06.621Z,420
2017-04-02T06:07:47.081Z,448
2017-04-02T06:08:27.556Z,472
2017-04-02T06:09:08.055Z,492
2017-04-02T06:09:48.548Z,512
2017-04-02T06:10:29.004Z,532
2017-04-02T06:11:09.516Z,552
2017-04-02T06:11:49.979Z,584
2017-04-02T06:12:30.446Z,604
2017-04-02T06:13:10.952Z,628
2017-04-02T06:13:51.435Z,656
2017-04-02T06:14:31.916Z,676
2017-04-02T06:15:12.429Z,700
2017-04-02T06:15:52.926Z,720
2017-04-02T06:16:33.415Z,740
2017-04-02T06:17:13.900Z,756
2017-04-02T06:17:55.226Z,760
2017-04-02T06:18:35.790Z,756
2017-04-02T06:19:17.029Z,748
2017-04-02T06:19:57.990Z,736
2017-04-02T06:20:38.421Z,724
2017-04-02T06:21:18.852Z,704
2017-04-02T06:21:59.303Z,700
2017-04-02T06:22:39.757Z,680
2017-04-02T06:25:12.741Z,672
2017-04-02T06:25:53.240Z,676
2017-04-02T06:26:33.723Z,676
2017-04-02T06:27:14.187Z,672
2017-04-02T06:27:54.670Z,672
2017-04-02T06:28:35.180Z,688
2017-04-02T06:29:15.687Z,712
2017-04-02T06:29:56.129Z,748
2017-04-02T06:30:36.604Z,772
2017-04-02T06:31:17.074Z,780
2017-04-02T06:31:57.590Z,784
2017-04-02T06:32:38.058Z,780
2017-04-02T06:33:18.551Z,772
2017-04-02T06:33:59.079Z,756
2017-04-02T06:34:39.526Z,744
2017-04-02T06:35:19.976Z,732
2017-04-02T06:36:00.425Z,720
2017-04-02T06:36:40.893Z,716
2017-04-02T06:39:13.888Z,728
2017-04-02T06:39:54.419Z,740
2017-04-02T06:40:34.876Z,756
2017-04-02T06:41:15.380Z,780
2017-04-02T06:41:55.858Z,804
2017-04-02T06:42:36.356Z,824
2017-04-02T06:43:16.780Z,860
2017-04-02T06:45:14.416Z,952
2017-04-02T06:45:54.836Z,988
2017-04-02T06:46:35.302Z,1024
2017-04-02T06:47:15.739Z,1056
2017-04-02T06:47:56.189Z,1092
2017-04-02T07:28:16.735Z,9568
2017-04-02T07:53:20.019Z,13928
2017-04-02T07:54:03.325Z,13904
2017-04-02T07:54:44.522Z,14252
2017-04-02T07:55:24.985Z,14668
2017-04-02T07:56:05.466Z,15008
2017-04-02T07:56:45.965Z,15596
2017-04-02T07:57:26.452Z,16000
2017-04-02T07:58:06.960Z,16044
2017-04-02T07:58:47.468Z,16180
2017-04-02T07:59:27.920Z,16828
2017-04-02T08:00:08.412Z,16420
2017-04-02T08:00:48.863Z,16332
2017-04-02T08:01:29.315Z,16924
2017-04-02T08:02:09.792Z,16568
2017-04-02T08:02:50.234Z,16472
2017-04-02T08:03:30.736Z,16124
2017-04-02T08:06:04.963Z,14808
2017-04-02T08:06:45.522Z,14644
2017-04-02T08:07:26.114Z,13856
2017-04-02T08:08:10.005Z,12928
2017-04-02T08:10:37.937Z,11200
2017-04-02T08:11:25.100Z,10724
2017-04-02T08:12:06.226Z,10480
2017-04-02T08:12:59.096Z,10488
2017-04-02T08:13:48.540Z,10736
2017-04-02T08:14:47.061Z,11000
2017-04-02T08:15:30.148Z,11104
2017-04-02T08:18:04.309Z,10940
2017-04-02T08:18:48.045Z,10748
2017-04-02T08:19:31.166Z,10784
2017-04-02T08:20:11.800Z,10668
2017-04-02T08:20:52.355Z,10464
2017-04-02T08:21:32.828Z,10276
2017-04-02T08:22:14.673Z,10228
2017-04-02T08:23:02.014Z,10296
2017-04-02T08:23:42.483Z,10624
2017-04-02T08:24:22.960Z,11008
2017-04-02T08:26:20.641Z,10712
2017-04-02T08:27:09.184Z,10832
2017-04-02T08:27:49.649Z,10924
2017-04-02T08:30:19.785Z,12116
2017-04-02T08:32:43.727Z,13432
2017-04-02T08:35:06.226Z,15568
2017-04-02T08:35:46.710Z,17056
2017-04-02T08:38:28.408Z,27904
2017-04-02T08:39:09.427Z,22688
2017-04-02T08:40:45.374Z,20640
2017-04-02T08:42:36.455Z,16228
2017-04-02T08:46:11.765Z,11764
2017-04-02T08:46:56.954Z,11332
2017-04-02T08:49:39.741Z,12924
2017-04-02T08:50:20.821Z,13796
2017-04-02T08:51:42.424Z,16080
2017-04-02T08:52:22.858Z,20064
2017-04-02T08:53:05.919Z,35968
2017-04-02T08:53:46.391Z,21088
2017-04-02T08:54:27.752Z,18592
2017-04-02T08:55:16.831Z,16476
2017-04-02T08:57:41.455Z,16700
2017-04-02T09:16:53.255Z,17856
2017-04-02T09:19:13.974Z,9276
2017-04-02T09:21:01.029Z,9900
2017-04-02T11:48:53.671Z,89088
2017-04-02T11:49:34.137Z,44448
2017-04-02T11:50:14.913Z,68576
2017-04-02T11:50:55.354Z,70208
2017-04-02T11:51:35.843Z,94432
2017-04-02T11:52:34.518Z,92096
2017-04-02T15:41:07.916Z,5572
2017-04-02T15:41:52.858Z,5748
2017-04-02T15:42:33.639Z,5320
2017-04-02T15:43:33.244Z,5280
2017-04-02T15:55:16.590Z,5876
2017-04-02T16:44:13.978Z,3104
2017-04-02T16:47:34.515Z,2980
2017-04-02T16:48:51.475Z,2940
2017-04-02T17:31:12.836Z,780
2017-04-02T17:34:53.358Z,640
2017-04-02T18:27:48.090Z,4
2017-04-02T18:33:02.260Z,0
2017-04-02T18:52:25.841Z,0
2017-04-02T18:53:06.337Z,0
2017-04-02T18:53:46.811Z,0
2017-04-02T18:54:27.296Z,0
2017-04-02T18:56:35.411Z,0
2017-04-02T18:57:46.840Z,0
2017-04-02T18:58:27.332Z,0
2017-04-02T18:59:07.789Z,0
2017-04-02T18:59:48.255Z,0
2017-04-02T19:00:28.716Z,0
2017-04-02T19:02:48.468Z,0
2017-04-02T19:03:31.901Z,0
2017-04-02T19:08:30.897Z,0
2017-04-02T19:13:45.582Z,0
2017-04-02T19:15:23.260Z,0
2017-04-02T19:16:05.209Z,0
